createdAt,value
2017-08-19T00:00:01.282Z,23.50
2017-08-19T00:01:05.758Z,23.80
2017-08-19T00:02:10.110Z,23.50
2017-08-19T00:03:14.560Z,24.40
2017-08-19T00:04:18.933Z,25.30
2017-08-19T00:05:23.948Z,27.00
2017-08-19T00:06:28.402Z,28.40
2017-08-19T00:15:14.993Z,42.80
2017-08-19T00:16:19.339Z,43.10
2017-08-19T00:17:23.779Z,44.20
2017-08-19T00:18:28.100Z,45.10
2017-08-19T00:19:32.459Z,45.80
2017-08-19T00:20:36.823Z,46.50
2017-08-19T00:21:41.898Z,47.00
2017-08-19T00:22:46.952Z,47.70
2017-08-19T00:23:51.376Z,48.20
2017-08-19T00:24:55.727Z,48.70
2017-08-19T00:26:00.752Z,49.30
2017-08-19T00:27:05.816Z,49.70
2017-08-19T00:28:10.847Z,50.20
2017-08-19T00:29:15.325Z,50.90
2017-08-19T00:30:19.793Z,51.40
2017-08-19T00:31:24.303Z,51.90
2017-08-19T00:32:28.663Z,52.50
2017-08-19T00:33:34.031Z,52.80
2017-08-19T00:34:38.497Z,53.40
2017-08-19T00:35:42.995Z,53.80
2017-08-19T00:36:47.464Z,54.30
2017-08-19T00:37:51.772Z,54.80
2017-08-19T00:38:56.092Z,55.10
2017-08-19T00:40:00.551Z,55.60
2017-08-19T00:41:04.884Z,55.90
2017-08-19T00:42:09.914Z,55.40
2017-08-19T00:43:14.232Z,55.70
2017-08-19T00:44:18.561Z,56.00
2017-08-19T00:45:23.570Z,56.40
2017-08-19T00:46:28.031Z,56.60
2017-08-19T00:47:32.481Z,57.00
2017-08-19T00:48:36.985Z,57.20
2017-08-19T00:49:41.446Z,57.40
2017-08-19T00:50:45.907Z,57.60
2017-08-19T00:51:50.236Z,58.00
2017-08-19T00:52:55.272Z,64.30
2017-08-19T00:53:59.791Z,61.80
2017-08-19T00:55:04.272Z,57.60
2017-08-19T00:56:08.632Z,54.90
2017-08-19T00:57:13.680Z,53.10
2017-08-19T00:58:18.203Z,52.00
2017-08-19T00:59:23.371Z,51.40
2017-08-19T01:00:27.878Z,50.80
2017-08-19T01:01:32.935Z,49.90
2017-08-19T01:02:37.430Z,48.40
2017-08-19T01:03:41.926Z,46.70
2017-08-19T01:04:46.406Z,45.00
2017-08-19T01:05:50.749Z,43.00
2017-08-19T01:06:55.256Z,41.20
2017-08-19T01:07:59.730Z,39.40
2017-08-19T01:09:04.820Z,38.60
2017-08-19T01:10:09.917Z,37.10
2017-08-19T01:11:14.418Z,35.60
2017-08-19T01:12:18.806Z,34.20
2017-08-19T01:13:23.159Z,33.10
2017-08-19T01:14:28.213Z,31.80
2017-08-19T01:15:32.563Z,30.80
2017-08-19T01:16:37.057Z,29.90
2017-08-19T01:17:42.138Z,29.30
2017-08-19T01:18:46.505Z,28.50
2017-08-19T01:19:50.988Z,27.90
2017-08-19T01:20:55.308Z,27.20
2017-08-19T01:21:59.788Z,26.60
2017-08-19T01:23:04.837Z,26.00
2017-08-19T01:24:09.203Z,25.50
2017-08-19T01:25:13.671Z,25.10
2017-08-19T01:26:18.184Z,24.60
2017-08-19T01:27:22.660Z,24.70
2017-08-19T01:28:27.712Z,23.70
2017-08-19T01:29:32.796Z,23.90
2017-08-19T01:30:37.899Z,23.70
2017-08-19T01:31:42.414Z,23.80
2017-08-19T01:32:46.780Z,25.20
2017-08-19T01:33:51.282Z,26.00
2017-08-19T01:34:56.662Z,27.40
2017-08-19T01:36:01.735Z,29.00
2017-08-19T01:37:06.795Z,30.00
2017-08-19T01:38:11.306Z,31.90
2017-08-19T01:39:15.654Z,33.60
2017-08-19T01:40:20.161Z,35.40
2017-08-19T01:41:24.500Z,37.10
2017-08-19T01:42:28.838Z,38.90
2017-08-19T01:43:33.421Z,40.40
2017-08-19T01:44:38.453Z,41.90
2017-08-19T01:45:42.937Z,43.10
2017-08-19T01:46:47.968Z,44.20
2017-08-19T01:47:52.459Z,45.00
2017-08-19T01:48:56.826Z,45.80
2017-08-19T01:50:01.317Z,46.40
2017-08-19T01:51:06.386Z,47.10
2017-08-19T01:52:10.873Z,47.60
2017-08-19T01:53:15.383Z,48.10
2017-08-19T01:54:19.866Z,48.70
2017-08-19T01:55:24.232Z,49.20
2017-08-19T01:56:28.700Z,49.70
2017-08-19T01:57:33.025Z,50.10
2017-08-19T01:58:37.378Z,50.60
2017-08-19T01:59:42.784Z,51.20
2017-08-19T02:00:47.305Z,51.60
2017-08-19T02:01:52.385Z,52.00
2017-08-19T02:02:56.749Z,52.40
2017-08-19T02:04:01.255Z,52.80
2017-08-19T02:05:05.651Z,53.30
2017-08-19T02:06:10.685Z,53.70
2017-08-19T02:07:15.175Z,54.10
2017-08-19T02:08:19.644Z,54.50
2017-08-19T02:09:24.698Z,54.90
2017-08-19T02:10:29.744Z,55.20
2017-08-19T02:11:34.073Z,55.50
2017-08-19T02:12:38.359Z,55.90
2017-08-19T02:13:42.666Z,56.20
2017-08-19T02:14:47.156Z,56.40
2017-08-19T02:15:51.650Z,55.90
2017-08-19T02:16:56.726Z,56.20
2017-08-19T02:18:01.188Z,56.40
2017-08-19T02:19:05.520Z,56.70
2017-08-19T02:20:09.808Z,57.00
2017-08-19T02:21:14.125Z,57.30
2017-08-19T02:22:19.266Z,57.70
2017-08-19T02:23:23.804Z,64.40
2017-08-19T02:24:28.299Z,61.40
2017-08-19T02:25:32.804Z,57.50
2017-08-19T02:26:37.141Z,54.50
2017-08-19T02:27:41.473Z,52.80
2017-08-19T02:28:45.972Z,51.80
2017-08-19T02:29:50.471Z,51.00
2017-08-19T02:30:54.824Z,49.70
2017-08-19T02:31:59.170Z,48.30
2017-08-19T02:33:03.669Z,46.60
2017-08-19T02:34:08.090Z,44.50
2017-08-19T02:35:12.595Z,42.50
2017-08-19T02:36:16.962Z,41.40
2017-08-19T02:37:21.466Z,39.50
2017-08-19T02:38:25.949Z,37.80
2017-08-19T02:39:31.136Z,36.80
2017-08-19T02:40:35.459Z,34.50
2017-08-19T02:41:39.984Z,33.30
2017-08-19T02:42:45.188Z,31.90
2017-08-19T02:43:49.675Z,30.90
2017-08-19T02:44:54.166Z,29.80
2017-08-19T02:45:59.323Z,29.10
2017-08-19T02:47:03.851Z,28.30
2017-08-19T02:48:08.370Z,27.60
2017-08-19T02:49:12.689Z,26.90
2017-08-19T02:50:17.207Z,26.30
2017-08-19T02:51:21.711Z,25.80
2017-08-19T02:52:26.853Z,25.20
2017-08-19T02:53:31.990Z,24.90
2017-08-19T02:54:36.383Z,24.30
2017-08-19T02:55:40.887Z,23.80
2017-08-19T02:56:46.042Z,23.30
2017-08-19T02:57:50.557Z,23.00
2017-08-19T02:58:55.092Z,22.70
2017-08-19T02:59:59.618Z,22.80
2017-08-19T03:01:04.133Z,23.70
2017-08-19T03:02:08.637Z,24.20
2017-08-19T03:03:13.155Z,25.40
2017-08-19T03:04:18.307Z,27.20
2017-08-19T03:05:23.488Z,28.40
2017-08-19T03:06:27.802Z,29.70
2017-08-19T03:07:32.128Z,31.10
2017-08-19T03:08:36.662Z,32.90
2017-08-19T03:09:41.157Z,34.80
2017-08-19T03:10:45.472Z,36.60
2017-08-19T03:11:50.590Z,38.30
2017-08-19T03:12:54.924Z,40.00
2017-08-19T03:13:59.443Z,41.40
2017-08-19T03:15:03.831Z,42.60
2017-08-19T03:16:08.971Z,43.80
2017-08-19T03:17:14.096Z,44.60
2017-08-19T03:18:18.436Z,45.40
2017-08-19T03:19:22.794Z,46.10
2017-08-19T03:20:27.314Z,46.70
2017-08-19T03:21:31.891Z,47.20
2017-08-19T03:22:36.683Z,47.80
2017-08-19T03:23:41.320Z,48.20
2017-08-19T03:24:46.564Z,48.60
2017-08-19T03:25:51.216Z,49.10
2017-08-19T03:26:55.823Z,49.70
2017-08-19T03:28:01.082Z,50.30
2017-08-19T03:29:05.645Z,50.70
2017-08-19T03:30:10.312Z,51.20
2017-08-19T03:31:15.096Z,51.60
2017-08-19T03:32:19.707Z,52.00
2017-08-19T03:33:24.546Z,52.50
2017-08-19T03:34:29.378Z,53.10
2017-08-19T03:35:34.096Z,53.40
2017-08-19T03:36:39.452Z,53.90
2017-08-19T03:37:44.803Z,54.30
2017-08-19T03:38:49.329Z,54.70
2017-08-19T03:39:54.092Z,55.00
2017-08-19T03:40:58.607Z,55.40
2017-08-19T03:42:04.090Z,55.70
2017-08-19T03:43:08.885Z,56.00
2017-08-19T03:44:13.523Z,56.30
2017-08-19T03:45:18.145Z,56.60
2017-08-19T03:46:23.349Z,56.90
2017-08-19T03:47:28.089Z,57.20
2017-08-19T03:48:32.775Z,57.40
2017-08-19T03:49:37.500Z,56.80
2017-08-19T03:50:42.187Z,57.10
2017-08-19T03:51:47.473Z,57.60
2017-08-19T03:52:52.670Z,57.90
2017-08-19T03:53:57.908Z,58.30
2017-08-19T03:55:02.749Z,65.40
2017-08-19T03:56:07.963Z,61.30
2017-08-19T03:57:12.735Z,57.10
2017-08-19T03:58:17.446Z,54.50
2017-08-19T03:59:22.176Z,52.80
2017-08-19T04:00:27.359Z,51.80
2017-08-19T04:01:31.911Z,51.20
2017-08-19T04:02:36.661Z,50.50
2017-08-19T04:03:41.429Z,49.40
2017-08-19T04:04:46.174Z,47.90
2017-08-19T04:05:51.384Z,47.00
2017-08-19T04:06:56.045Z,45.20
2017-08-19T04:08:00.522Z,43.20
2017-08-19T04:09:05.313Z,41.20
2017-08-19T04:10:10.065Z,39.20
2017-08-19T04:11:14.626Z,37.60
2017-08-19T04:12:19.404Z,36.00
2017-08-19T04:13:24.606Z,34.60
2017-08-19T04:14:29.206Z,33.10
2017-08-19T04:15:34.140Z,32.10
2017-08-19T04:16:38.910Z,30.80
2017-08-19T04:17:43.470Z,30.00
2017-08-19T04:18:48.242Z,29.20
2017-08-19T04:19:53.573Z,28.50
2017-08-19T04:20:58.394Z,27.80
2017-08-19T04:22:03.602Z,27.00
2017-08-19T04:23:08.343Z,26.50
2017-08-19T04:24:12.767Z,25.90
2017-08-19T04:25:17.429Z,25.30
2017-08-19T04:26:22.653Z,24.80
2017-08-19T04:27:27.892Z,24.40
2017-08-19T04:28:32.276Z,24.00
2017-08-19T04:29:36.896Z,23.60
2017-08-19T04:30:42.139Z,23.00
2017-08-19T04:31:46.817Z,22.70
2017-08-19T04:32:51.580Z,22.70
2017-08-19T04:33:56.234Z,22.90
2017-08-19T04:35:01.533Z,23.40
2017-08-19T04:36:06.762Z,24.70
2017-08-19T04:37:11.467Z,26.10
2017-08-19T04:38:17.530Z,27.50
2017-08-19T04:39:22.233Z,28.70
2017-08-19T04:40:26.972Z,30.00
2017-08-19T04:41:32.213Z,31.80
2017-08-19T04:42:36.835Z,33.60
2017-08-19T04:43:41.615Z,35.50
2017-08-19T04:44:46.085Z,37.30
2017-08-19T04:45:51.290Z,38.90
2017-08-19T04:46:56.076Z,40.40
2017-08-19T04:48:00.770Z,41.90
2017-08-19T04:49:05.644Z,43.10
2017-08-19T04:50:10.424Z,44.10
2017-08-19T04:51:15.696Z,45.00
2017-08-19T04:52:20.536Z,45.70
2017-08-19T04:53:25.738Z,46.40
2017-08-19T04:54:30.507Z,46.90
2017-08-19T04:55:35.715Z,47.50
2017-08-19T04:56:41.483Z,47.90
2017-08-19T04:57:46.203Z,48.40
2017-08-19T04:58:50.849Z,49.10
2017-08-19T04:59:56.038Z,49.80
2017-08-19T05:01:02.156Z,50.30
2017-08-19T05:02:07.314Z,50.70
2017-08-19T05:03:11.701Z,51.30
2017-08-19T05:04:16.403Z,51.80
2017-08-19T05:05:21.179Z,52.30
2017-08-19T05:06:26.401Z,52.80
2017-08-19T05:07:30.837Z,53.20
2017-08-19T05:08:35.571Z,53.70
2017-08-19T05:09:40.026Z,54.10
2017-08-19T05:10:44.862Z,54.70
2017-08-19T05:11:50.127Z,55.00
2017-08-19T05:12:54.902Z,55.40
2017-08-19T05:14:00.162Z,55.70
2017-08-19T05:15:06.191Z,56.10
2017-08-19T05:16:10.637Z,56.40
2017-08-19T05:17:15.446Z,56.80
2017-08-19T05:18:19.866Z,57.60
2017-08-19T05:19:25.197Z,57.30
2017-08-19T05:20:29.832Z,57.50
2017-08-19T05:21:35.048Z,58.00
2017-08-19T05:22:40.246Z,58.20
2017-08-19T05:23:44.869Z,58.40
2017-08-19T05:24:49.446Z,58.90
2017-08-19T05:25:53.978Z,59.20
2017-08-19T05:26:58.303Z,59.40
2017-08-19T05:28:02.886Z,81.20
2017-08-19T05:29:07.491Z,78.20
2017-08-19T05:30:12.030Z,83.10
2017-08-19T05:31:17.236Z,93.20
2017-08-19T05:32:21.585Z,91.80
2017-08-19T05:33:27.195Z,84.30
2017-08-19T05:34:31.968Z,80.40
2017-08-19T05:35:36.680Z,78.00
2017-08-19T05:36:41.905Z,77.10
2017-08-19T05:37:47.153Z,77.00
2017-08-19T05:38:51.719Z,75.20
2017-08-19T05:39:56.295Z,72.70
2017-08-19T05:41:01.563Z,69.60
2017-08-19T05:42:06.308Z,65.40
2017-08-19T05:43:11.582Z,61.40
2017-08-19T05:44:16.278Z,57.20
2017-08-19T05:45:20.946Z,53.60
2017-08-19T05:46:25.421Z,50.20
2017-08-19T05:47:30.183Z,47.30
2017-08-19T05:48:35.478Z,44.80
2017-08-19T05:49:39.950Z,42.80
2017-08-19T05:50:44.597Z,41.80
2017-08-19T05:51:50.728Z,40.10
2017-08-19T05:52:55.200Z,38.50
2017-08-19T05:53:59.883Z,37.00
2017-08-19T05:55:04.901Z,35.70
2017-08-19T05:56:10.419Z,34.50
2017-08-19T05:57:15.695Z,33.40
2017-08-19T05:58:20.100Z,32.30
2017-08-19T05:59:24.894Z,31.30
2017-08-19T06:00:29.596Z,30.30
2017-08-19T06:01:34.774Z,29.60
2017-08-19T06:02:39.502Z,29.00
2017-08-19T06:03:44.275Z,28.40
2017-08-19T06:04:49.077Z,27.90
2017-08-19T06:05:53.590Z,27.40
2017-08-19T06:06:58.323Z,27.00
2017-08-19T06:08:03.102Z,26.60
2017-08-19T06:09:08.098Z,26.10
2017-08-19T06:10:13.970Z,25.70
2017-08-19T06:11:18.539Z,25.30
2017-08-19T06:12:23.922Z,25.00
2017-08-19T06:13:28.962Z,25.00
2017-08-19T06:14:33.603Z,25.50
2017-08-19T06:15:38.377Z,26.30
2017-08-19T06:16:43.135Z,27.40
2017-08-19T06:17:47.670Z,28.90
2017-08-19T06:18:52.348Z,30.30
2017-08-19T06:19:57.520Z,32.20
2017-08-19T06:21:02.273Z,33.90
2017-08-19T06:22:06.761Z,35.50
2017-08-19T06:23:12.013Z,37.30
2017-08-19T06:24:16.533Z,76.90
2017-08-19T06:25:21.040Z,83.40
2017-08-19T06:26:25.696Z,75.60
2017-08-19T06:27:30.229Z,70.50
2017-08-19T06:28:34.926Z,66.10
2017-08-19T06:29:39.867Z,62.90
2017-08-19T06:30:45.158Z,60.60
2017-08-19T06:31:49.999Z,59.20
2017-08-19T06:32:54.732Z,57.90
2017-08-19T06:33:59.506Z,57.30
2017-08-19T06:35:04.846Z,56.70
2017-08-19T06:36:09.519Z,56.40
2017-08-19T06:37:14.183Z,56.50
2017-08-19T06:38:19.405Z,56.40
2017-08-19T06:39:24.164Z,56.50
2017-08-19T06:40:28.722Z,56.80
2017-08-19T06:41:34.078Z,57.00
2017-08-19T06:42:39.393Z,57.40
2017-08-19T06:43:43.849Z,57.80
2017-08-19T06:44:48.568Z,58.40
2017-08-19T06:45:53.325Z,58.80
2017-08-19T06:46:57.900Z,59.20
2017-08-19T06:48:02.563Z,59.50
2017-08-19T06:49:07.918Z,59.90
2017-08-19T06:50:13.187Z,60.30
2017-08-19T06:51:17.665Z,60.70
2017-08-19T06:52:22.378Z,61.00
2017-08-19T06:53:27.186Z,61.30
2017-08-19T06:54:32.717Z,79.50
2017-08-19T06:55:37.229Z,82.50
2017-08-19T06:56:41.951Z,77.80
2017-08-19T06:57:46.583Z,75.10
2017-08-19T06:58:51.292Z,73.20
2017-08-19T06:59:56.165Z,72.00
2017-08-19T07:01:00.683Z,71.00
2017-08-19T07:02:05.471Z,69.30
2017-08-19T07:03:10.225Z,68.70
2017-08-19T07:04:15.484Z,68.20
2017-08-19T07:05:20.745Z,71.70
2017-08-19T07:06:25.639Z,73.20
2017-08-19T07:07:30.994Z,69.70
2017-08-19T07:08:35.985Z,64.80
2017-08-19T07:09:41.249Z,61.30
2017-08-19T07:10:46.922Z,59.20
2017-08-19T07:11:51.661Z,57.80
2017-08-19T07:12:57.371Z,56.70
2017-08-19T07:14:02.602Z,55.50
2017-08-19T07:15:08.001Z,54.50
2017-08-19T07:16:13.286Z,52.40
2017-08-19T07:17:18.048Z,50.30
2017-08-19T07:18:23.287Z,48.40
2017-08-19T07:19:28.643Z,46.40
2017-08-19T07:20:33.493Z,44.60
2017-08-19T07:21:38.125Z,42.80
2017-08-19T07:22:43.300Z,41.30
2017-08-19T07:23:50.223Z,39.70
2017-08-19T07:24:56.151Z,38.20
2017-08-19T07:26:01.943Z,36.90
2017-08-19T07:27:07.696Z,35.70
2017-08-19T07:28:14.925Z,34.60
2017-08-19T07:29:20.904Z,33.50
2017-08-19T07:30:26.606Z,32.50
2017-08-19T07:31:32.955Z,31.60
2017-08-19T07:32:38.765Z,30.70
2017-08-19T07:33:44.705Z,30.00
2017-08-19T07:34:50.159Z,29.30
2017-08-19T07:35:56.289Z,28.70
2017-08-19T07:37:02.431Z,28.20
2017-08-19T07:38:08.439Z,27.60
2017-08-19T07:39:15.050Z,27.20
2017-08-19T07:40:21.815Z,26.70
2017-08-19T07:41:27.692Z,26.40
2017-08-19T07:42:33.680Z,26.00
2017-08-19T07:43:39.798Z,25.60
2017-08-19T07:44:46.714Z,25.10
2017-08-19T07:45:52.723Z,24.90
2017-08-19T07:46:59.215Z,25.20
2017-08-19T07:48:04.975Z,25.70
2017-08-19T07:49:10.792Z,26.70
2017-08-19T07:50:16.769Z,28.00
2017-08-19T07:51:23.551Z,29.20
2017-08-19T07:52:29.309Z,30.50
2017-08-19T07:53:35.416Z,32.40
2017-08-19T07:54:41.743Z,34.20
2017-08-19T07:55:48.213Z,35.90
2017-08-19T07:56:54.019Z,37.60
2017-08-19T07:57:58.820Z,39.20
2017-08-19T07:59:03.675Z,41.00
2017-08-19T08:00:08.633Z,42.50
2017-08-19T08:01:13.910Z,43.90
2017-08-19T08:02:18.613Z,45.00
2017-08-19T08:03:23.354Z,46.00
2017-08-19T08:04:28.086Z,91.10
2017-08-19T08:05:32.869Z,91.30
2017-08-19T08:06:37.554Z,84.80
2017-08-19T08:07:42.961Z,80.40
2017-08-19T08:08:47.786Z,77.40
2017-08-19T08:09:55.138Z,75.40
2017-08-19T08:11:00.571Z,73.30
2017-08-19T08:12:05.230Z,71.70
2017-08-19T08:13:10.769Z,70.20
2017-08-19T08:14:16.690Z,69.10
2017-08-19T08:15:21.567Z,68.10
2017-08-19T08:16:25.959Z,67.30
2017-08-19T08:17:30.924Z,66.60
2017-08-19T08:18:35.629Z,66.10
2017-08-19T08:19:40.441Z,66.00
2017-08-19T08:20:45.008Z,65.70
2017-08-19T08:21:50.279Z,65.50
2017-08-19T08:22:54.792Z,65.40
2017-08-19T08:23:59.350Z,65.30
2017-08-19T08:25:04.139Z,65.30
2017-08-19T08:26:08.966Z,65.30
2017-08-19T08:27:13.665Z,65.40
2017-08-19T08:28:18.797Z,65.50
2017-08-19T08:29:23.491Z,65.50
2017-08-19T08:30:28.123Z,65.70
2017-08-19T08:31:32.963Z,65.80
2017-08-19T08:32:37.577Z,65.90
2017-08-19T08:33:42.126Z,81.50
2017-08-19T08:34:46.788Z,90.90
2017-08-19T08:35:52.063Z,83.50
2017-08-19T08:36:57.104Z,81.40
2017-08-19T08:38:01.735Z,81.20
2017-08-19T08:39:06.434Z,79.40
2017-08-19T08:40:10.889Z,77.60
2017-08-19T08:41:15.633Z,90.80
2017-08-19T08:42:20.191Z,90.30
2017-08-19T08:43:25.035Z,90.50
2017-08-19T08:44:29.766Z,83.40
2017-08-19T08:45:34.514Z,85.10
2017-08-19T08:46:40.785Z,92.10
2017-08-19T08:47:46.098Z,89.00
2017-08-19T08:48:50.949Z,89.20
2017-08-19T08:49:55.518Z,89.60
2017-08-19T08:51:00.390Z,92.00
2017-08-19T08:52:05.107Z,90.70
2017-08-19T08:53:09.744Z,90.50
2017-08-19T08:54:15.071Z,91.30
2017-08-19T08:55:20.357Z,90.70
2017-08-19T08:56:25.398Z,90.40
2017-08-19T08:57:30.041Z,91.30
2017-08-19T08:58:35.278Z,90.90
2017-08-19T08:59:39.915Z,90.50
2017-08-19T09:00:44.877Z,90.20
2017-08-19T09:01:49.915Z,89.80
2017-08-19T09:02:55.318Z,89.20
2017-08-19T09:04:00.157Z,88.50
2017-08-19T09:05:05.977Z,87.50
2017-08-19T09:06:10.660Z,86.90
2017-08-19T09:07:15.903Z,85.90
2017-08-19T09:08:20.898Z,84.80
2017-08-19T09:09:25.572Z,83.30
2017-08-19T09:10:30.482Z,80.70
2017-08-19T09:11:34.954Z,75.50
2017-08-19T09:12:39.710Z,63.60
2017-08-19T09:13:44.178Z,52.70
2017-08-19T09:14:49.423Z,47.00
2017-08-19T09:15:54.166Z,44.60
2017-08-19T09:16:58.878Z,42.80
2017-08-19T09:18:04.302Z,41.20
2017-08-19T09:19:09.581Z,39.60
2017-08-19T09:20:14.504Z,38.40
2017-08-19T09:21:19.365Z,37.50
2017-08-19T09:22:23.964Z,36.60
2017-08-19T09:23:30.218Z,35.80
2017-08-19T09:24:35.201Z,35.00
2017-08-19T09:25:40.613Z,34.20
2017-08-19T09:26:45.536Z,33.70
2017-08-19T09:27:50.130Z,44.40
2017-08-19T09:28:55.408Z,61.10
2017-08-19T09:30:00.802Z,55.00
2017-08-19T09:31:06.152Z,49.80
2017-08-19T09:32:11.543Z,45.60
2017-08-19T09:33:16.052Z,42.40
2017-08-19T09:34:21.830Z,39.80
2017-08-19T09:35:28.308Z,37.40
2017-08-19T09:36:33.249Z,58.00
2017-08-19T09:37:38.204Z,50.30
2017-08-19T09:38:43.450Z,52.50
2017-08-19T09:39:49.011Z,79.50
2017-08-19T09:40:53.889Z,67.30
2017-08-19T09:41:58.844Z,56.80
2017-08-19T09:43:03.568Z,51.10
2017-08-19T09:44:08.489Z,46.90
2017-08-19T09:45:13.952Z,43.90
2017-08-19T09:46:18.918Z,41.40
2017-08-19T09:47:24.111Z,39.30
2017-08-19T09:48:30.334Z,37.40
2017-08-19T09:49:35.249Z,36.30
2017-08-19T09:50:40.124Z,35.00
2017-08-19T09:51:44.869Z,34.10
2017-08-19T09:52:50.287Z,33.00
2017-08-19T09:53:55.071Z,31.80
2017-08-19T09:54:59.885Z,30.90
2017-08-19T09:56:04.919Z,30.00
2017-08-19T09:57:10.988Z,46.40
2017-08-19T09:58:16.243Z,55.00
2017-08-19T09:59:20.996Z,63.30
2017-08-19T10:00:25.764Z,65.50
2017-08-19T10:01:30.734Z,59.60
2017-08-19T10:02:36.840Z,80.40
2017-08-19T10:03:43.665Z,75.60
2017-08-19T10:04:49.335Z,64.30
2017-08-19T10:05:55.034Z,55.80
2017-08-19T10:07:00.653Z,50.50
2017-08-19T10:08:06.583Z,46.50
2017-08-19T10:09:12.228Z,43.30
2017-08-19T10:10:17.738Z,40.70
2017-08-19T10:11:23.653Z,38.60
2017-08-19T10:12:30.088Z,37.10
2017-08-19T10:13:35.946Z,35.90
2017-08-19T10:14:41.743Z,34.80
2017-08-19T10:15:48.970Z,33.90
2017-08-19T10:16:55.484Z,32.80
2017-08-19T10:18:01.313Z,31.30
2017-08-19T10:19:07.693Z,30.80
2017-08-19T10:20:13.301Z,30.10
2017-08-19T10:21:21.407Z,30.00
2017-08-19T10:22:27.209Z,30.30
2017-08-19T10:23:33.326Z,30.80
2017-08-19T10:24:40.089Z,31.50
2017-08-19T10:25:47.132Z,32.40
2017-08-19T10:26:52.781Z,33.30
2017-08-19T10:27:59.347Z,34.40
2017-08-19T10:29:05.281Z,35.50
2017-08-19T10:30:11.036Z,36.60
2017-08-19T10:31:17.285Z,37.70
2017-08-19T10:32:23.439Z,38.50
2017-08-19T10:33:29.383Z,39.40
2017-08-19T10:34:35.943Z,40.40
2017-08-19T10:35:42.087Z,41.40
2017-08-19T10:36:48.185Z,42.30
2017-08-19T10:37:54.160Z,43.20
2017-08-19T10:38:59.867Z,44.00
2017-08-19T10:40:07.133Z,44.80
2017-08-19T10:41:12.955Z,45.60
2017-08-19T10:42:19.829Z,46.30
2017-08-19T10:43:26.270Z,47.30
2017-08-19T10:44:32.210Z,48.10
2017-08-19T10:45:38.789Z,48.90
2017-08-19T10:46:45.084Z,49.70
2017-08-19T10:47:51.099Z,86.50
2017-08-19T10:48:56.843Z,87.50
2017-08-19T10:50:02.124Z,81.50
2017-08-19T10:51:06.599Z,77.70
2017-08-19T10:52:11.248Z,79.70
2017-08-19T10:53:16.491Z,88.60
2017-08-19T10:54:21.371Z,83.70
2017-08-19T10:55:30.480Z,78.30
2017-08-19T10:56:36.371Z,73.90
2017-08-19T10:57:42.851Z,69.20
2017-08-19T10:58:48.483Z,64.70
2017-08-19T10:59:54.249Z,61.00
2017-08-19T11:01:00.437Z,58.30
2017-08-19T11:02:07.030Z,56.20
2017-08-19T11:03:13.031Z,80.50
2017-08-19T11:04:19.760Z,75.10
2017-08-19T11:05:24.484Z,67.70
2017-08-19T11:06:29.396Z,71.00
2017-08-19T11:07:34.041Z,77.30
2017-08-19T11:08:39.374Z,70.10
2017-08-19T11:09:44.382Z,62.00
2017-08-19T11:10:50.692Z,57.10
2017-08-19T11:11:55.232Z,53.90
2017-08-19T11:13:00.144Z,51.50
2017-08-19T11:14:05.441Z,49.60
2017-08-19T11:15:10.693Z,47.90
2017-08-19T11:16:15.712Z,46.40
2017-08-19T11:17:21.592Z,45.20
2017-08-19T11:18:26.361Z,44.10
2017-08-19T11:19:31.454Z,43.10
2017-08-19T11:20:36.536Z,42.80
2017-08-19T11:21:41.434Z,41.20
2017-08-19T11:22:46.868Z,40.40
2017-08-19T11:23:52.269Z,39.60
2017-08-19T11:24:57.058Z,38.90
2017-08-19T11:26:02.004Z,38.20
2017-08-19T11:27:06.755Z,37.50
2017-08-19T11:28:11.850Z,36.90
2017-08-19T11:29:17.343Z,41.70
2017-08-19T11:30:23.182Z,55.80
2017-08-19T11:31:28.350Z,51.50
2017-08-19T11:32:34.282Z,46.90
2017-08-19T11:33:40.014Z,43.60
2017-08-19T11:34:45.048Z,41.30
2017-08-19T11:35:50.555Z,39.50
2017-08-19T11:36:56.571Z,37.90
2017-08-19T11:38:01.385Z,36.70
2017-08-19T11:39:06.169Z,35.60
2017-08-19T11:40:11.747Z,34.70
2017-08-19T11:41:17.187Z,34.10
2017-08-19T11:42:22.056Z,33.40
2017-08-19T11:43:26.853Z,32.90
2017-08-19T11:44:33.019Z,32.40
2017-08-19T11:45:37.974Z,31.80
2017-08-19T11:46:42.723Z,31.40
2017-08-19T11:47:47.569Z,30.70
2017-08-19T11:48:52.663Z,30.30
2017-08-19T11:49:57.408Z,30.00
2017-08-19T11:51:02.436Z,29.90
2017-08-19T11:52:07.481Z,29.50
2017-08-19T11:53:12.254Z,29.20
2017-08-19T11:54:17.201Z,29.10
2017-08-19T11:55:22.648Z,28.80
2017-08-19T11:56:27.708Z,28.40
2017-08-19T11:57:32.622Z,28.20
2017-08-19T11:58:38.095Z,28.00
2017-08-19T11:59:43.265Z,27.90
2017-08-19T12:00:49.321Z,27.60
2017-08-19T12:01:54.136Z,27.40
2017-08-19T12:02:59.352Z,27.30
2017-08-19T12:04:04.678Z,27.50
2017-08-19T12:05:09.922Z,28.00
2017-08-19T12:06:15.667Z,28.60
2017-08-19T12:07:21.112Z,29.20
2017-08-19T12:08:26.642Z,30.00
2017-08-19T12:09:31.790Z,31.00
2017-08-19T12:10:36.943Z,32.20
2017-08-19T12:11:43.036Z,33.40
2017-08-19T12:12:48.250Z,34.80
2017-08-19T12:13:53.513Z,36.10
2017-08-19T12:14:59.230Z,37.10
2017-08-19T12:16:04.489Z,37.90
2017-08-19T12:17:09.519Z,68.80
2017-08-19T12:18:16.229Z,77.50
2017-08-19T12:19:22.339Z,65.10
2017-08-19T12:20:27.910Z,58.50
2017-08-19T12:21:32.908Z,55.60
2017-08-19T12:22:37.869Z,54.00
2017-08-19T12:23:43.182Z,52.90
2017-08-19T12:24:48.163Z,52.50
2017-08-19T12:25:53.048Z,52.20
2017-08-19T12:26:57.844Z,52.30
2017-08-19T12:28:02.867Z,52.50
2017-08-19T12:29:08.151Z,52.80
2017-08-19T12:30:12.990Z,53.30
2017-08-19T12:31:17.816Z,53.80
2017-08-19T12:32:22.929Z,54.40
2017-08-19T12:33:28.630Z,53.60
2017-08-19T12:34:33.956Z,51.30
2017-08-19T12:35:39.334Z,49.40
2017-08-19T12:36:44.336Z,48.10
2017-08-19T12:37:49.803Z,46.90
2017-08-19T12:38:54.926Z,46.00
2017-08-19T12:39:59.827Z,44.70
2017-08-19T12:41:04.842Z,43.20
2017-08-19T12:42:10.206Z,42.00
2017-08-19T12:43:15.133Z,40.70
2017-08-19T12:44:20.303Z,39.40
2017-08-19T12:45:25.382Z,38.30
2017-08-19T12:46:30.257Z,37.60
2017-08-19T12:47:35.741Z,36.40
2017-08-19T12:48:40.748Z,35.40
2017-08-19T12:49:45.879Z,34.30
2017-08-19T12:50:51.595Z,33.50
2017-08-19T12:51:57.264Z,32.80
2017-08-19T12:53:02.903Z,33.00
2017-08-19T12:54:07.891Z,31.20
2017-08-19T12:55:13.843Z,30.90
2017-08-19T12:56:19.702Z,30.30
2017-08-19T12:57:24.849Z,29.90
2017-08-19T12:58:30.058Z,29.50
2017-08-19T12:59:35.224Z,28.80
2017-08-19T13:00:40.510Z,28.80
2017-08-19T13:01:45.750Z,28.30
2017-08-19T13:02:50.715Z,28.00
2017-08-19T13:03:56.413Z,27.60
2017-08-19T13:05:01.886Z,27.10
2017-08-19T13:06:07.610Z,26.80
2017-08-19T13:07:13.001Z,26.60
2017-08-19T13:08:18.213Z,26.50
2017-08-19T13:09:23.068Z,26.20
2017-08-19T13:10:28.625Z,25.80
2017-08-19T13:11:33.776Z,25.60
2017-08-19T13:12:39.146Z,25.40
2017-08-19T13:13:44.677Z,25.10
2017-08-19T13:14:49.836Z,25.00
2017-08-19T13:15:56.781Z,24.80
2017-08-19T13:17:02.130Z,24.50
2017-08-19T13:18:09.399Z,24.30
2017-08-19T13:19:17.967Z,24.10
2017-08-19T13:20:24.363Z,23.90
2017-08-19T13:21:31.762Z,23.60
2017-08-19T13:22:37.572Z,23.60
2017-08-19T13:23:42.219Z,23.50
2017-08-19T13:24:48.465Z,23.20
2017-08-19T13:25:53.496Z,23.20
2017-08-19T13:26:59.768Z,22.90
2017-08-19T13:28:05.538Z,22.90
2017-08-19T13:29:12.768Z,22.70
2017-08-19T13:30:18.394Z,22.50
2017-08-19T13:31:25.749Z,22.20
2017-08-19T13:32:31.387Z,22.40
2017-08-19T13:33:39.043Z,22.30
2017-08-19T13:34:50.056Z,22.00
2017-08-19T13:35:57.055Z,21.80
2017-08-19T13:37:07.455Z,32.10
2017-08-19T13:38:13.048Z,43.40
2017-08-19T13:39:18.003Z,46.50
2017-08-19T13:40:25.248Z,38.80
2017-08-19T13:41:31.087Z,33.50
2017-08-19T13:42:38.358Z,29.90
2017-08-19T13:43:44.506Z,28.10
2017-08-19T13:44:51.032Z,27.00
2017-08-19T13:45:56.617Z,25.80
2017-08-19T13:47:01.652Z,25.10
2017-08-19T13:48:06.580Z,24.70
2017-08-19T13:49:11.506Z,24.10
2017-08-19T13:50:18.222Z,23.60
2017-08-19T13:51:23.017Z,45.10
2017-08-19T13:52:29.645Z,48.30
2017-08-19T13:53:34.508Z,41.60
2017-08-19T13:54:39.872Z,37.10
2017-08-19T13:55:45.933Z,33.70
2017-08-19T13:56:52.557Z,31.30
2017-08-19T13:57:58.478Z,29.40
2017-08-19T13:59:07.105Z,28.10
2017-08-19T14:00:12.768Z,26.70
2017-08-19T14:01:17.502Z,25.70
2017-08-19T14:02:23.180Z,24.90
2017-08-19T14:03:28.953Z,24.20
2017-08-19T14:04:34.594Z,23.90
2017-08-19T14:05:40.069Z,23.40